Time;durP1;ratioP1;P1;durP2;ratioP2;P2;SDS_P1;SDS_P2;PMS_P1;PMS_P2;Temp;Humidity;BMP_temperature;BMP_pressure;BME280_temperature;BME280_humidity;BME280_pressure;Samples;Min_cycle;Max_cycle;Signal;HPM_P1;HPM_P2
2021/05/19 00:01:24;;;;;;;3.53;1.70;;;8.60;99.90;;;;;;5035222;28;20493;-75
2021/05/19 00:03:50;;;;;;;2.27;1.20;;;8.60;99.90;;;;;;5034775;28;20483;-75
2021/05/19 00:06:17;;;;;;;1.47;1.37;;;8.70;99.90;;;;;;5034866;28;20950;-77
2021/05/19 00:08:43;;;;;;;1.20;1.10;;;8.70;99.90;;;;;;5035029;28;20470;-77
2021/05/19 00:11:10;;;;;;;2.17;1.60;;;8.70;99.90;;;;;;5035093;28;20454;-78
2021/05/19 00:13:37;;;;;;;1.57;1.23;;;8.70;99.90;;;;;;5034679;28;21016;-78
2021/05/19 00:16:06;;;;;;;1.47;1.37;;;8.70;99.90;;;;;;5034968;28;20453;-78
2021/05/19 00:18:32;;;;;;;1.17;1.10;;;8.60;99.90;;;;;;5034838;28;20478;-77
2021/05/19 00:20:59;;;;;;;1.20;1.20;;;8.70;99.90;;;;;;5034825;28;20450;-77
2021/05/19 00:23:25;;;;;;;1.60;1.50;;;8.70;99.90;;;;;;5034694;28;20548;-78
2021/05/19 00:25:51;;;;;;;1.53;1.43;;;8.70;99.90;;;;;;5034754;28;20451;-78
2021/05/19 00:28:17;;;;;;;1.53;1.43;;;8.70;99.90;;;;;;5034348;28;20458;-77
2021/05/19 00:30:47;;;;;;;5.00;1.20;;;8.70;99.90;;;;;;5034670;28;20456;-78
2021/05/19 00:33:13;;;;;;;1.33;1.20;;;8.70;99.90;;;;;;5034592;28;20451;-78
2021/05/19 00:35:39;;;;;;;1.80;1.30;;;8.70;99.90;;;;;;5034592;28;20537;-78
2021/05/19 00:38:06;;;;;;;1.30;1.20;;;8.70;99.90;;;;;;5034539;28;20453;-77
2021/05/19 00:40:32;;;;;;;1.40;1.30;;;8.80;99.90;;;;;;5034115;28;20988;-78
2021/05/19 00:42:58;;;;;;;2.30;1.30;;;8.70;99.90;;;;;;5034154;28;20551;-78
2021/05/19 00:45:25;;;;;;;1.50;1.40;;;8.80;99.90;;;;;;5034078;28;20970;-76
2021/05/19 00:47:52;;;;;;;1.43;1.30;;;8.70;99.90;;;;;;5034313;28;20450;-75
2021/05/19 00:50:21;;;;;;;2.70;1.37;;;8.70;99.90;;;;;;5034218;28;20466;-75
2021/05/19 00:52:47;;;;;;;1.33;1.23;;;8.70;99.90;;;;;;5034284;28;20441;-75
2021/05/19 00:55:14;;;;;;;1.20;1.10;;;8.70;99.90;;;;;;5034063;28;20968;-75
2021/05/19 00:57:41;;;;;;;1.40;1.30;;;8.80;99.90;;;;;;5034163;28;20873;-75
2021/05/19 01:00:11;;;;;;;1.40;1.10;;;8.80;99.90;;;;;;5034058;28;20470;-75
2021/05/19 01:02:38;;;;;;;1.20;1.10;;;8.80;99.90;;;;;;5034000;28;20537;-75
2021/05/19 01:05:09;;;;;;;1.37;1.27;;;8.80;99.90;;;;;;5034028;28;20450;-75
2021/05/19 01:07:37;;;;;;;1.70;1.60;;;8.70;99.90;;;;;;5034014;28;20446;-75
2021/05/19 01:10:04;;;;;;;1.40;1.27;;;8.70;99.90;;;;;;5033896;28;20473;-76
2021/05/19 01:12:31;;;;;;;1.20;1.20;;;8.80;99.90;;;;;;5034417;28;20477;-75
2021/05/19 01:14:57;;;;;;;3.73;1.40;;;8.70;99.90;;;;;;5033878;28;20450;-76
2021/05/19 01:17:24;;;;;;;1.93;1.30;;;8.70;99.90;;;;;;5033887;28;20796;-75
2021/05/19 01:19:52;;;;;;;1.20;1.10;;;8.70;99.90;;;;;;5033420;28;20662;-76
2021/05/19 01:22:25;;;;;;;1.33;1.23;;;8.70;99.90;;;;;;5032957;28;21009;-76
2021/05/19 01:24:52;;;;;;;1.60;1.50;;;8.70;99.90;;;;;;5033978;28;20524;-79
2021/05/19 01:27:19;;;;;;;1.63;1.53;;;8.60;99.90;;;;;;5033767;28;20508;-79
2021/05/19 01:29:48;;;;;;;1.60;1.50;;;8.60;99.90;;;;;;5034334;28;20536;-79
2021/05/19 01:32:14;;;;;;;1.50;1.40;;;8.60;99.90;;;;;;5033619;28;20489;-79
2021/05/19 01:34:41;;;;;;;1.80;1.70;;;8.60;99.90;;;;;;5033228;28;20950;-79
2021/05/19 01:37:10;;;;;;;1.60;1.50;;;8.60;99.90;;;;;;5033597;28;20447;-79
2021/05/19 01:39:38;;;;;;;1.40;1.30;;;8.60;99.90;;;;;;5033125;28;20974;-79
2021/05/19 01:42:05;;;;;;;1.43;1.33;;;8.60;99.90;;;;;;5033440;28;20462;-79
2021/05/19 01:44:31;;;;;;;1.57;1.47;;;8.50;99.90;;;;;;5033058;28;20471;-79
2021/05/19 01:46:58;;;;;;;1.50;1.40;;;8.50;99.90;;;;;;5033094;28;20455;-79
2021/05/19 01:49:29;;;;;;;1.70;1.60;;;8.60;99.90;;;;;;5033358;28;20463;-79
2021/05/19 01:51:57;;;;;;;2.23;1.33;;;8.60;99.90;;;;;;5033422;28;20439;-79
2021/05/19 01:54:25;;;;;;;1.97;1.60;;;8.50;99.90;;;;;;5033397;28;20450;-79
2021/05/19 01:56:52;;;;;;;1.30;1.30;;;8.50;99.90;;;;;;5033365;28;20445;-79
2021/05/19 01:59:18;;;;;;;1.37;1.27;;;8.50;99.90;;;;;;5032990;28;21047;-79
2021/05/19 02:01:44;;;;;;;1.60;1.50;;;8.50;99.90;;;;;;5033267;28;20828;-80
2021/05/19 02:04:13;;;;;;;1.37;1.27;;;8.60;99.90;;;;;;5033221;28;20536;-80
2021/05/19 02:06:47;;;;;;;1.30;1.20;;;8.50;99.90;;;;;;5033242;28;20443;-79
2021/05/19 02:09:15;;;;;;;2.00;1.63;;;8.50;99.90;;;;;;5032783;28;21012;-80
2021/05/19 02:11:41;;;;;;;2.07;1.87;;;8.50;99.90;;;;;;5033230;28;20446;-79
2021/05/19 02:14:08;;;;;;;3.20;1.70;;;8.50;99.90;;;;;;5032879;28;20957;-79
2021/05/19 02:16:34;;;;;;;1.53;1.43;;;8.50;99.90;;;;;;5033161;28;20446;-80
2021/05/19 02:19:01;;;;;;;1.83;1.60;;;8.50;99.90;;;;;;5033050;28;20467;-80
2021/05/19 02:21:27;;;;;;;1.60;1.50;;;8.50;99.90;;;;;;5033086;28;20447;-79
2021/05/19 02:23:54;;;;;;;1.50;1.40;;;8.50;99.90;;;;;;5033001;28;20482;-80
2021/05/19 02:26:20;;;;;;;1.50;1.40;;;8.50;99.90;;;;;;5033068;28;20455;-80
2021/05/19 02:28:47;;;;;;;1.87;1.53;;;8.50;99.90;;;;;;5032969;28;20478;-80
2021/05/19 02:31:14;;;;;;;1.30;1.20;;;8.50;99.90;;;;;;5033076;28;20450;-80
2021/05/19 02:33:40;;;;;;;1.30;1.20;;;8.50;99.90;;;;;;5033642;28;20450;-79
2021/05/19 02:36:07;;;;;;;1.40;1.40;;;8.50;99.90;;;;;;5036853;28;20442;-80
2021/05/19 02:38:34;;;;;;;2.10;1.30;;;8.50;99.90;;;;;;5036326;28;20477;-80
2021/05/19 02:41:01;;;;;;;1.13;1.13;;;8.50;99.90;;;;;;5036752;28;20584;-80
2021/05/19 02:43:27;;;;;;;1.73;1.63;;;8.50;99.90;;;;;;5036317;28;20563;-80
2021/05/19 02:45:54;;;;;;;2.20;2.07;;;8.40;99.90;;;;;;5036351;28;20450;-79
2021/05/19 02:48:21;;;;;;;1.73;1.20;;;8.40;99.90;;;;;;5036190;28;20446;-80
2021/05/19 02:50:47;;;;;;;1.47;1.37;;;8.40;99.90;;;;;;5036279;28;20454;-80
2021/05/19 02:53:13;;;;;;;3.83;1.80;;;8.40;99.90;;;;;;5036547;28;20450;-80
2021/05/19 02:55:39;;;;;;;1.47;1.37;;;8.40;99.90;;;;;;5036531;28;20434;-80
2021/05/19 02:58:06;;;;;;;1.73;1.43;;;8.40;99.90;;;;;;5036400;28;20458;-80
2021/05/19 03:00:32;;;;;;;1.87;1.57;;;8.40;99.90;;;;;;5036278;28;20565;-80
2021/05/19 03:02:58;;;;;;;1.47;1.37;;;8.50;99.90;;;;;;5036252;28;20540;-80
2021/05/19 03:05:26;;;;;;;1.57;1.47;;;8.50;99.90;;;;;;5036331;28;20443;-80
2021/05/19 03:07:52;;;;;;;1.83;1.73;;;8.50;99.90;;;;;;5036489;28;20481;-80
2021/05/19 03:10:18;;;;;;;2.63;1.40;;;8.50;99.90;;;;;;5036106;28;20470;-80
2021/05/19 03:12:45;;;;;;;1.80;1.70;;;8.50;99.90;;;;;;5036089;28;20538;-80
2021/05/19 03:15:12;;;;;;;1.67;1.57;;;8.50;99.90;;;;;;5036160;28;20457;-80
2021/05/19 03:17:39;;;;;;;3.30;1.80;;;8.50;99.90;;;;;;5035719;28;20454;-80
2021/05/19 03:20:06;;;;;;;1.90;1.70;;;8.50;99.90;;;;;;5035932;28;20546;-80
2021/05/19 03:22:34;;;;;;;5.57;2.00;;;8.60;99.90;;;;;;5035565;28;20532;-80
2021/05/19 03:25:00;;;;;;;1.50;1.40;;;8.50;99.90;;;;;;5035987;28;20443;-80
2021/05/19 03:27:26;;;;;;;2.20;1.60;;;8.50;99.90;;;;;;5035928;28;20462;-80
2021/05/19 03:29:52;;;;;;;2.00;1.80;;;8.50;99.90;;;;;;5035443;28;20851;-80
2021/05/19 03:32:18;;;;;;;1.80;1.70;;;8.50;99.90;;;;;;5035787;28;20446;-80
2021/05/19 03:34:45;;;;;;;1.60;1.50;;;8.50;99.90;;;;;;5035447;28;20950;-80
2021/05/19 03:37:11;;;;;;;2.10;1.50;;;8.50;99.90;;;;;;5035432;28;20965;-80
2021/05/19 03:39:38;;;;;;;1.63;1.53;;;8.50;99.90;;;;;;5035280;28;20946;-80
2021/05/19 03:42:06;;;;;;;2.57;1.70;;;8.50;99.90;;;;;;5036354;28;20461;-80
2021/05/19 03:44:32;;;;;;;1.83;1.73;;;8.50;99.90;;;;;;5034820;28;20846;-80
2021/05/19 03:46:58;;;;;;;1.80;1.70;;;8.50;99.90;;;;;;5035509;28;20450;-80
2021/05/19 03:49:27;;;;;;;2.03;1.93;;;8.50;99.90;;;;;;5035466;28;20474;-80
2021/05/19 03:51:53;;;;;;;1.70;1.60;;;8.50;99.90;;;;;;5035492;28;20527;-80
2021/05/19 03:54:20;;;;;;;1.33;1.33;;;8.50;99.90;;;;;;5035169;28;20942;-80
2021/05/19 03:56:49;;;;;;;2.53;2.33;;;8.50;99.90;;;;;;5035101;28;20966;-80
2021/05/19 03:59:16;;;;;;;3.40;2.20;;;8.50;99.90;;;;;;5035249;28;20466;-80
2021/05/19 04:01:42;;;;;;;2.17;2.03;;;8.50;99.90;;;;;;5034933;28;20443;-80
2021/05/19 04:04:09;;;;;;;1.60;1.50;;;8.50;99.90;;;;;;5034879;28;21018;-80
2021/05/19 04:06:35;;;;;;;15.37;2.00;;;8.50;99.90;;;;;;5035038;28;20465;-80
2021/05/19 04:09:05;;;;;;;1.80;1.70;;;8.50;99.90;;;;;;5035062;28;20474;-80
2021/05/19 04:11:32;;;;;;;1.57;1.47;;;8.50;99.90;;;;;;5034827;28;20911;-80
2021/05/19 04:13:59;;;;;;;1.80;1.70;;;8.50;99.90;;;;;;5035011;28;20534;-80
2021/05/19 04:16:25;;;;;;;2.03;1.83;;;8.50;99.90;;;;;;5035043;28;20450;-80
2021/05/19 04:18:51;;;;;;;2.07;1.87;;;8.50;99.90;;;;;;5034585;28;20471;-80
2021/05/19 04:21:17;;;;;;;1.40;1.37;;;8.50;99.90;;;;;;5035462;28;20509;-80
2021/05/19 04:23:44;;;;;;;1.90;1.80;;;8.50;99.90;;;;;;5034547;28;20874;-80
2021/05/19 04:26:10;;;;;;;1.93;1.83;;;8.50;99.90;;;;;;5034846;28;20451;-80
2021/05/19 04:28:36;;;;;;;2.03;1.90;;;8.50;99.90;;;;;;5034645;28;20471;-80
2021/05/19 04:31:03;;;;;;;1.80;1.70;;;8.50;99.90;;;;;;5034383;28;20954;-80
2021/05/19 04:33:29;;;;;;;1.80;1.70;;;8.50;99.90;;;;;;5034625;28;20457;-80
2021/05/19 04:35:56;;;;;;;1.93;1.83;;;8.60;99.90;;;;;;5034883;28;20441;-80
2021/05/19 04:38:22;;;;;;;1.70;1.60;;;8.60;99.90;;;;;;5034509;28;20541;-80
2021/05/19 04:40:48;;;;;;;2.97;1.90;;;8.60;99.90;;;;;;5034496;28;20446;-80
2021/05/19 04:43:15;;;;;;;1.90;1.80;;;8.70;99.90;;;;;;5034102;28;20498;-80
2021/05/19 04:45:42;;;;;;;2.97;2.27;;;8.70;99.90;;;;;;5034540;28;21015;-81
2021/05/19 04:48:09;;;;;;;2.80;2.50;;;8.70;99.90;;;;;;5034349;28;20439;-81
2021/05/19 04:50:36;;;;;;;2.67;2.47;;;8.70;99.90;;;;;;5033957;28;20471;-81
2021/05/19 04:53:03;;;;;;;2.77;2.57;;;8.70;99.90;;;;;;5034330;28;20430;-81
2021/05/19 04:55:30;;;;;;;2.80;2.60;;;8.70;99.90;;;;;;5033951;28;20497;-81
2021/05/19 04:57:56;;;;;;;2.60;2.40;;;8.80;99.90;;;;;;5033948;28;20465;-81
2021/05/19 05:00:22;;;;;;;2.80;2.60;;;8.80;99.90;;;;;;5034113;28;20467;-81
2021/05/19 05:02:49;;;;;;;2.10;2.00;;;8.80;99.90;;;;;;5033969;28;20482;-81
2021/05/19 05:05:16;;;;;;;2.63;2.53;;;8.80;99.90;;;;;;5033728;28;20453;-81
2021/05/19 05:07:42;;;;;;;4.30;2.47;;;8.80;99.90;;;;;;5033752;28;20446;-81
2021/05/19 05:10:10;;;;;;;3.30;3.00;;;8.80;99.90;;;;;;5033988;28;20463;-81
2021/05/19 05:12:37;;;;;;;2.90;2.60;;;8.80;99.90;;;;;;5033942;28;20443;-81
2021/05/19 05:15:05;;;;;;;2.27;2.17;;;8.90;99.90;;;;;;5033884;28;20451;-81
2021/05/19 05:17:31;;;;;;;2.80;2.60;;;8.90;99.90;;;;;;5033540;28;20960;-80
2021/05/19 05:19:57;;;;;;;4.87;3.27;;;9.00;99.90;;;;;;5033754;28;20477;-81
2021/05/19 05:22:25;;;;;;;3.00;2.80;;;9.10;99.90;;;;;;5034094;28;20451;-81
2021/05/19 05:24:51;;;;;;;3.07;2.87;;;9.20;99.90;;;;;;5033995;28;20450;-81
2021/05/19 05:27:17;;;;;;;4.40;2.53;;;9.30;99.90;;;;;;5033758;28;20891;-81
2021/05/19 05:29:43;;;;;;;5.27;3.00;;;9.40;99.90;;;;;;5033818;28;20501;-80
2021/05/19 05:32:09;;;;;;;3.90;2.50;;;9.50;99.90;;;;;;5033645;28;20942;-80
2021/05/19 05:34:36;;;;;;;5.17;2.77;;;9.50;99.90;;;;;;5034129;28;20455;-81
2021/05/19 05:37:02;;;;;;;2.93;2.73;;;9.50;99.90;;;;;;5034352;28;20450;-80
2021/05/19 05:39:29;;;;;;;2.40;2.23;;;9.40;99.90;;;;;;5033909;28;20869;-81
2021/05/19 05:41:55;;;;;;;4.00;2.43;;;9.50;99.90;;;;;;5033745;28;20946;-80
2021/05/19 05:44:22;;;;;;;2.87;2.47;;;9.50;99.90;;;;;;5033296;28;20490;-80
2021/05/19 05:46:48;;;;;;;3.40;2.63;;;9.50;99.90;;;;;;5033791;28;20458;-81
2021/05/19 05:49:14;;;;;;;3.63;3.30;;;9.60;99.90;;;;;;5033740;28;20474;-81
2021/05/19 05:51:40;;;;;;;3.77;3.40;;;9.80;99.90;;;;;;5033685;28;20443;-80
2021/05/19 05:54:07;;;;;;;2.83;2.63;;;9.80;99.90;;;;;;5033732;28;20450;-80
2021/05/19 05:56:34;;;;;;;2.93;2.63;;;9.90;99.90;;;;;;5033513;28;20969;-80
2021/05/19 05:59:00;;;;;;;2.80;2.60;;;9.90;99.90;;;;;;5033276;28;21016;-80
2021/05/19 06:01:27;;;;;;;2.43;2.33;;;9.90;99.90;;;;;;5033842;28;20449;-80
2021/05/19 06:03:53;;;;;;;2.70;2.50;;;10.10;99.90;;;;;;5033697;28;20478;-80
2021/05/19 06:06:19;;;;;;;3.03;2.83;;;10.30;99.90;;;;;;5033661;28;20450;-80
2021/05/19 06:08:45;;;;;;;2.80;2.60;;;10.50;99.90;;;;;;5036091;28;20477;-80
2021/05/19 06:11:12;;;;;;;2.83;2.60;;;10.70;99.90;;;;;;5037585;28;20450;-80
2021/05/19 06:13:39;;;;;;;3.10;2.53;;;10.80;99.90;;;;;;5037360;28;20552;-80
2021/05/19 06:16:06;;;;;;;2.13;2.00;;;11.10;99.90;;;;;;5037480;28;20946;-81
2021/05/19 06:18:32;;;;;;;2.30;2.20;;;11.40;99.90;;;;;;5037738;28;20470;-79
2021/05/19 06:20:58;;;;;;;4.40;2.60;;;11.90;99.90;;;;;;5037624;28;20450;-80
2021/05/19 06:23:25;;;;;;;2.07;1.97;;;12.30;99.90;;;;;;5037164;28;21059;-79
2021/05/19 06:25:51;;;;;;;2.30;2.10;;;12.50;99.90;;;;;;5037587;28;20866;-79
2021/05/19 06:28:17;;;;;;;3.80;2.60;;;12.50;99.90;;;;;;5037272;28;20449;-79
2021/05/19 06:30:45;;;;;;;2.60;2.20;;;12.40;99.90;;;;;;5036910;28;20942;-80
2021/05/19 06:33:11;;;;;;;2.57;2.00;;;12.30;99.90;;;;;;5037415;28;20457;-79
2021/05/19 06:35:37;;;;;;;1.77;1.67;;;12.10;99.90;;;;;;5037139;28;20465;-80
2021/05/19 06:38:04;;;;;;;1.93;1.83;;;12.00;99.90;;;;;;5037010;28;20451;-79
2021/05/19 06:40:30;;;;;;;1.80;1.70;;;11.80;99.90;;;;;;5036861;28;20469;-79
2021/05/19 06:42:57;;;;;;;2.90;1.90;;;11.70;99.90;;;;;;5036345;28;20490;-79
2021/05/19 06:45:23;;;;;;;2.10;2.00;;;11.70;99.90;;;;;;5036744;28;20450;-79
2021/05/19 06:47:51;;;;;;;2.40;2.20;;;12.10;99.90;;;;;;5036371;28;20443;-79
2021/05/19 06:50:18;;;;;;;6.10;2.30;;;12.70;99.90;;;;;;5036580;28;20473;-79
2021/05/19 06:52:44;;;;;;;2.40;1.87;;;13.60;99.90;;;;;;5036222;28;20937;-80
2021/05/19 06:55:12;;;;;;;1.93;1.83;;;14.70;99.90;;;;;;5036238;28;20431;-80
2021/05/19 06:57:39;;;;;;;1.50;1.40;;;15.70;99.90;;;;;;5036498;28;20446;-80
2021/05/19 07:00:07;;;;;;;1.60;1.50;;;16.20;99.90;;;;;;5036107;28;20470;-79
2021/05/19 07:02:33;;;;;;;2.87;1.23;;;16.30;99.90;;;;;;5036310;28;20477;-80
2021/05/19 07:05:00;;;;;;;1.60;1.33;;;16.10;99.90;;;;;;5036361;28;20502;-80
2021/05/19 07:07:27;;;;;;;2.50;1.67;;;15.90;99.90;;;;;;5036445;28;20477;-80
2021/05/19 07:09:53;;;;;;;1.83;1.53;;;15.50;99.90;;;;;;5036233;28;20524;-79
2021/05/19 07:12:19;;;;;;;2.50;1.87;;;15.00;99.90;;;;;;5036258;28;20450;-80
2021/05/19 07:14:49;;;;;;;2.10;1.40;;;14.60;99.90;;;;;;5036133;28;20473;-79
2021/05/19 07:17:16;;;;;;;1.57;1.47;;;14.30;99.90;;;;;;5036132;28;20449;-79
2021/05/19 07:19:42;;;;;;;2.87;1.60;;;14.20;99.90;;;;;;5036018;28;20487;-79
2021/05/19 07:22:09;;;;;;;2.30;1.87;;;14.10;99.90;;;;;;5036062;28;20439;-79
2021/05/19 07:24:36;;;;;;;2.30;1.50;;;14.10;99.90;;;;;;5035659;28;20974;-79
2021/05/19 07:27:02;;;;;;;1.90;1.70;;;14.10;99.90;;;;;;5036006;28;20485;-79
2021/05/19 07:29:29;;;;;;;5.77;3.93;;;13.90;99.90;;;;;;5035579;28;20467;-80
2021/05/19 07:31:56;;;;;;;3.13;1.70;;;13.90;99.90;;;;;;5035615;28;20427;-79
2021/05/19 07:34:23;;;;;;;1.60;1.50;;;14.00;99.90;;;;;;5035646;28;20493;-79
2021/05/19 07:36:49;;;;;;;2.80;2.53;;;14.30;99.90;;;;;;5035813;28;20442;-79
2021/05/19 07:39:18;;;;;;;1.53;1.43;;;14.80;99.90;;;;;;5035686;28;20462;-80
2021/05/19 07:41:44;;;;;;;1.77;1.67;;;15.20;99.90;;;;;;5036263;28;20470;-79
2021/05/19 07:44:10;;;;;;;3.00;1.77;;;15.30;99.90;;;;;;5035107;28;20487;-79
2021/05/19 07:46:38;;;;;;;1.57;1.47;;;15.20;99.90;;;;;;5035681;28;20496;-79
2021/05/19 07:49:04;;;;;;;1.90;1.80;;;15.10;99.90;;;;;;5035502;28;20466;-79
2021/05/19 07:51:31;;;;;;;1.67;1.57;;;15.00;99.90;;;;;;5035556;28;20451;-79
2021/05/19 07:53:57;;;;;;;1.67;1.57;;;14.90;99.90;;;;;;5035482;28;20431;-79
2021/05/19 07:56:31;;;;;;;2.40;1.87;;;14.80;99.90;;;;;;5035435;28;20770;-80
2021/05/19 07:59:02;;;;;;;2.30;1.70;;;14.60;99.90;;;;;;5035328;28;20474;-79
2021/05/19 08:01:53;;;;;;;1.57;1.50;;;14.60;99.90;;;;;;5035387;28;20462;-79
2021/05/19 08:04:17;;;;;;;1.60;1.50;;;14.70;99.90;;;;;;5034604;28;20566;-81
2021/05/19 08:06:43;;;;;;;2.87;1.80;;;15.00;99.90;;;;;;5035182;28;20454;-80
2021/05/19 08:09:09;;;;;;;2.10;1.60;;;15.40;99.90;;;;;;5034725;28;20834;-80
2021/05/19 08:11:38;;;;;;;2.27;1.77;;;16.00;99.90;;;;;;5035070;28;20453;-79
2021/05/19 08:14:04;;;;;;;2.80;1.50;;;17.00;99.90;;;;;;5035042;28;20799;-80
2021/05/19 08:16:31;;;;;;;1.50;1.40;;;17.60;99.90;;;;;;5035080;28;20454;-79
2021/05/19 08:18:57;;;;;;;1.63;1.37;;;17.80;99.90;;;;;;5034982;28;20536;-80
2021/05/19 08:21:24;;;;;;;1.63;1.40;;;17.80;99.90;;;;;;5034631;28;20434;-80
2021/05/19 08:23:51;;;;;;;2.40;1.73;;;17.50;99.90;;;;;;5034822;28;20481;-80
2021/05/19 08:26:17;;;;;;;1.87;1.40;;;17.30;99.90;;;;;;5034836;28;20465;-80
2021/05/19 08:28:46;;;;;;;1.60;1.50;;;17.10;99.90;;;;;;5034727;28;20470;-80
2021/05/19 08:31:13;;;;;;;1.47;1.37;;;17.10;99.90;;;;;;5033450;28;20454;-80
2021/05/19 08:33:41;;;;;;;3.10;1.77;;;17.00;99.90;;;;;;5034492;28;20439;-80
2021/05/19 08:36:07;;;;;;;1.80;1.30;;;16.80;99.90;;;;;;5034627;28;20450;-80
2021/05/19 08:38:37;;;;;;;1.30;1.30;;;16.60;99.90;;;;;;5034481;28;20446;-80
2021/05/19 08:41:04;;;;;;;1.20;1.10;;;16.50;99.90;;;;;;5034577;28;20435;-80
2021/05/19 08:43:30;;;;;;;1.30;1.20;;;17.00;99.90;;;;;;5033847;28;20553;-81
2021/05/19 08:45:57;;;;;;;2.03;1.10;;;17.50;99.90;;;;;;5034447;28;20443;-81
2021/05/19 08:48:25;;;;;;;1.10;1.07;;;18.30;99.90;;;;;;5034255;28;20461;-80
2021/05/19 08:50:51;;;;;;;1.10;1.10;;;18.50;99.90;;;;;;5034256;28;20443;-80
2021/05/19 08:53:18;;;;;;;4.43;1.00;;;18.50;99.10;;;;;;5034000;28;20442;-80
2021/05/19 08:55:45;;;;;;;1.30;1.20;;;18.30;98.00;;;;;;5033966;28;20955;-80
2021/05/19 08:58:11;;;;;;;1.73;0.97;;;18.30;96.80;;;;;;5034227;28;20508;-80
2021/05/19 09:00:38;;;;;;;0.93;0.93;;;18.30;96.70;;;;;;5034550;28;20509;-81
2021/05/19 09:03:07;;;;;;;1.40;0.67;;;18.50;92.50;;;;;;5034514;28;20531;-80
2021/05/19 09:05:34;;;;;;;0.80;0.80;;;18.80;93.10;;;;;;5034185;28;20434;-81
2021/05/19 09:08:05;;;;;;;0.80;0.80;;;19.10;91.80;;;;;;5033893;28;20802;-81
2021/05/19 09:10:31;;;;;;;0.70;0.70;;;19.20;90.60;;;;;;5033990;28;20493;-80
2021/05/19 09:12:57;;;;;;;1.00;1.00;;;19.40;87.10;;;;;;5034002;28;20427;-81
2021/05/19 09:15:24;;;;;;;0.80;0.80;;;19.40;85.20;;;;;;5033642;28;20939;-80
2021/05/19 09:18:00;;;;;;;0.70;0.70;;;19.00;85.70;;;;;;5033647;28;20430;-81
2021/05/19 09:20:27;;;;;;;1.00;0.60;;;18.80;86.90;;;;;;5033828;28;20554;-81
2021/05/19 09:23:04;;;;;;;1.03;0.70;;;18.50;87.00;;;;;;5033779;28;20426;-81
2021/05/19 09:25:31;;;;;;;0.90;0.80;;;18.30;86.60;;;;;;5033786;28;20491;-80
2021/05/19 09:28:00;;;;;;;2.00;0.97;;;18.10;88.20;;;;;;5033787;28;20427;-80
2021/05/19 09:30:36;;;;;;;0.60;0.60;;;18.20;89.20;;;;;;5033659;28;20537;-81
2021/05/19 09:33:17;;;;;;;0.63;0.63;;;18.50;87.40;;;;;;5033750;28;20462;-81
2021/05/19 09:35:45;;;;;;;0.80;0.67;;;18.80;86.50;;;;;;5033384;28;20929;-81
2021/05/19 09:38:28;;;;;;;0.70;0.70;;;19.10;83.60;;;;;;5033714;28;20407;-81
2021/05/19 09:41:16;;;;;;;1.00;0.90;;;19.30;78.90;;;;;;5033577;28;20441;-82
2021/05/19 09:43:43;;;;;;;1.93;0.70;;;19.40;80.10;;;;;;5032852;28;20498;-81
2021/05/19 09:46:16;;;;;;;0.73;0.60;;;19.40;80.30;;;;;;5033644;28;20488;-81
2021/05/19 09:48:43;;;;;;;0.50;0.50;;;19.60;75.50;;;;;;5033197;28;20476;-82
2021/05/19 09:51:10;;;;;;;2.20;0.50;;;19.90;69.30;;;;;;5033502;28;20430;-81
2021/05/19 09:53:37;;;;;;;0.53;0.50;;;20.50;67.00;;;;;;5033538;28;20505;-81
2021/05/19 09:56:07;;;;;;;0.60;0.60;;;20.70;63.20;;;;;;5033190;28;20918;-81
2021/05/19 09:58:37;;;;;;;0.50;0.50;;;21.00;62.40;;;;;;5033357;28;20433;-81
2021/05/19 10:01:04;;;;;;;1.53;0.50;;;21.50;59.00;;;;;;5033124;28;20466;-81
2021/05/19 10:03:32;;;;;;;0.73;0.50;;;21.90;55.90;;;;;;5033302;28;20466;-81
2021/05/19 10:06:04;;;;;;;0.60;0.60;;;22.20;52.70;;;;;;5033448;28;20434;-81
2021/05/19 10:08:31;;;;;;;0.50;0.40;;;22.70;50.50;;;;;;5033253;28;20431;-81
2021/05/19 10:11:00;;;;;;;0.60;0.50;;;23.10;49.80;;;;;;5033464;28;20431;-82
2021/05/19 10:13:29;;;;;;;0.50;0.50;;;23.30;45.70;;;;;;5033265;28;20801;-82
2021/05/19 10:15:56;;;;;;;0.50;0.43;;;22.80;51.80;;;;;;5033464;28;20442;-81
2021/05/19 10:18:23;;;;;;;1.27;0.50;;;22.60;48.60;;;;;;5033016;28;20208;-81
2021/05/19 10:20:55;;;;;;;1.27;0.50;;;21.80;49.10;;;;;;5033341;28;20489;-81
2021/05/19 10:23:26;;;;;;;2.00;0.40;;;21.00;50.10;;;;;;5032897;28;20812;-81
2021/05/19 10:26:05;;;;;;;1.13;0.50;;;20.70;52.50;;;;;;5033190;28;20435;-81
2021/05/19 10:28:39;;;;;;;0.93;0.50;;;20.40;53.40;;;;;;5032845;28;20426;-81
2021/05/19 10:31:41;;;;;;;1.30;0.70;;;20.00;54.60;;;;;;5033790;28;20427;-81
2021/05/19 10:34:08;;;;;;;1.00;0.60;;;20.00;55.00;;;;;;5033120;28;20446;-81
2021/05/19 10:36:37;;;;;;;0.70;0.50;;;20.70;51.50;;;;;;5033086;28;20431;-81
2021/05/19 10:39:24;;;;;;;0.60;0.60;;;21.00;51.80;;;;;;5032907;28;20517;-81
2021/05/19 10:41:53;;;;;;;0.60;0.60;;;21.20;53.10;;;;;;5033763;28;20489;-81
2021/05/19 10:44:22;;;;;;;0.50;0.50;;;21.50;50.50;;;;;;5032632;28;20498;-82
2021/05/19 10:46:54;;;;;;;0.60;0.60;;;21.90;51.90;;;;;;5033164;28;20869;-82
2021/05/19 10:49:21;;;;;;;0.70;0.50;;;22.30;51.40;;;;;;5032802;28;20549;-82
2021/05/19 10:52:06;;;;;;;0.53;0.50;;;22.60;50.10;;;;;;5032942;28;20454;-82
2021/05/19 10:57:50;;;;;;;0.87;0.53;;;23.30;46.80;;;;;;5036442;28;20405;-80
2021/05/19 11:00:21;;;;;;;0.50;0.50;;;23.30;46.60;;;;;;5036385;28;20623;-81
2021/05/19 11:03:14;;;;;;;1.17;0.40;;;23.00;47.20;;;;;;5036623;28;20795;-81
2021/05/19 11:06:14;;;;;;;1.33;0.70;;;22.80;46.70;;;;;;5035958;28;20454;-81
2021/05/19 11:08:41;;;;;;;0.60;0.60;;;22.40;43.30;;;;;;4994568;28;20993;-81
2021/05/19 11:11:27;;;;;;;1.13;0.70;;;21.80;44.90;;;;;;4994842;28;20459;-82
2021/05/19 11:14:02;;;;;;;1.17;0.50;;;21.30;46.30;;;;;;5019047;28;20937;-82
2021/05/19 11:19:36;;;;;;;0.50;0.40;;;20.20;52.50;;;;;;5035314;28;20457;-81
2021/05/19 11:22:05;;;;;;;0.70;0.50;;;19.70;52.40;;;;;;5036019;28;20492;-82
2021/05/19 11:24:47;;;;;;;2.73;0.60;;;19.30;52.50;;;;;;5036166;28;20471;-81
2021/05/19 11:27:16;;;;;;;1.93;1.33;;;18.90;53.50;;;;;;5035991;28;20426;-81
2021/05/19 11:29:46;;;;;;;0.97;0.53;;;18.80;54.80;;;;;;5035853;28;20521;-82
2021/05/19 11:32:15;;;;;;;1.07;0.50;;;18.70;56.50;;;;;;5035821;28;20443;-81
2021/05/19 11:34:42;;;;;;;1.17;0.70;;;18.80;57.70;;;;;;5035899;28;20507;-82
2021/05/19 11:37:09;;;;;;;0.97;0.50;;;18.70;55.60;;;;;;5035821;28;20434;-82
2021/05/19 11:39:38;;;;;;;6.23;2.60;;;18.80;54.20;;;;;;5035545;28;20533;-82
2021/05/19 11:42:15;;;;;;;0.70;0.70;;;18.90;52.60;;;;;;5035668;28;20438;-82
2021/05/19 11:44:48;;;;;;;0.90;0.63;;;18.90;54.80;;;;;;5035560;28;20470;-82
2021/05/19 11:47:15;;;;;;;2.30;0.50;;;18.70;53.20;;;;;;5035557;28;20507;-82
2021/05/19 11:49:41;;;;;;;0.90;0.60;;;18.60;53.60;;;;;;5035483;28;20470;-82
2021/05/19 11:52:07;;;;;;;1.07;0.63;;;18.60;55.40;;;;;;5035588;28;20431;-82
2021/05/19 11:54:44;;;;;;;0.67;0.63;;;18.60;54.80;;;;;;5036869;28;20798;-82
2021/05/19 11:57:10;;;;;;;1.03;0.60;;;18.40;55.50;;;;;;5035783;28;20439;-83
2021/05/19 11:59:39;;;;;;;1.60;0.60;;;18.00;55.50;;;;;;5035353;28;20481;-82
2021/05/19 12:02:07;;;;;;;2.00;0.60;;;17.70;57.60;;;;;;5035208;28;20439;-82
2021/05/19 12:04:35;;;;;;;1.93;0.70;;;17.60;58.20;;;;;;5035164;28;20470;-82
2021/05/19 12:07:05;;;;;;;0.90;0.50;;;17.70;58.60;;;;;;5035085;28;20431;-82
2021/05/19 12:09:36;;;;;;;1.80;0.60;;;17.70;56.40;;;;;;5034989;28;20477;-82
2021/05/19 12:12:07;;;;;;;1.17;0.67;;;17.80;57.40;;;;;;5035048;28;20450;-82
2021/05/19 12:14:34;;;;;;;0.80;0.60;;;17.80;55.70;;;;;;5034680;28;20505;-82
2021/05/19 12:17:03;;;;;;;0.50;0.50;;;17.70;56.80;;;;;;5034590;28;20946;-82
2021/05/19 12:19:35;;;;;;;1.73;0.60;;;17.50;54.50;;;;;;5034735;28;20541;-82
2021/05/19 12:22:09;;;;;;;0.60;0.60;;;17.40;55.20;;;;;;5034911;28;20461;-82
2021/05/19 12:24:36;;;;;;;0.90;0.63;;;17.50;57.90;;;;;;5034898;28;20470;-81
2021/05/19 12:27:05;;;;;;;1.60;0.50;;;17.60;55.30;;;;;;5035259;28;20455;-82
2021/05/19 12:29:39;;;;;;;1.37;0.70;;;17.70;57.00;;;;;;5034255;28;20535;-82
2021/05/19 12:32:14;;;;;;;2.20;0.67;;;17.80;54.60;;;;;;5034636;28;20517;-82
2021/05/19 12:34:42;;;;;;;0.50;0.50;;;17.90;54.40;;;;;;5034551;28;20422;-81
2021/05/19 12:37:09;;;;;;;0.93;0.60;;;18.00;52.80;;;;;;5034544;28;20802;-81
2021/05/19 12:39:36;;;;;;;0.57;0.57;;;17.90;54.60;;;;;;5034333;28;20486;-82
2021/05/19 12:42:14;;;;;;;1.23;0.50;;;18.00;50.90;;;;;;5034384;28;20541;-82
2021/05/19 12:44:42;;;;;;;0.70;0.60;;;18.00;50.30;;;;;;5034005;28;20482;-83
2021/05/19 12:47:10;;;;;;;1.07;0.70;;;17.80;53.30;;;;;;5034106;28;20813;-83
2021/05/19 12:49:40;;;;;;;0.90;0.60;;;17.80;53.40;;;;;;5034230;28;20462;-83
2021/05/19 12:52:15;;;;;;;2.33;0.70;;;17.70;54.30;;;;;;5033949;28;20834;-83
2021/05/19 12:54:41;;;;;;;0.87;0.73;;;17.60;54.00;;;;;;5034247;28;20442;-83
2021/05/19 12:57:09;;;;;;;1.13;0.60;;;17.60;52.50;;;;;;5034097;28;20443;-82
2021/05/19 12:59:55;;;;;;;0.80;0.63;;;17.70;54.40;;;;;;5034027;28;20466;-82
2021/05/19 13:02:24;;;;;;;1.77;0.70;;;17.60;55.60;;;;;;5033880;28;20446;-82